createdAt,value
2022-11-04T00:01:46.596Z,14.58
2022-11-04T00:04:15.104Z,14.38
2022-11-04T00:06:41.731Z,14.45
2022-11-04T00:09:11.662Z,14.52
2022-11-04T00:11:56.695Z,14.06
2022-11-04T00:14:23.065Z,14.05
2022-11-04T00:17:07.999Z,13.96
2022-11-04T00:20:12.495Z,13.46
2022-11-04T00:23:00.254Z,13.79
2022-11-04T00:25:45.389Z,13.51
2022-11-04T00:28:31.647Z,13.68
2022-11-04T00:31:23.228Z,13.50
2022-11-04T00:33:51.080Z,13.22
2022-11-04T00:36:17.621Z,13.50
2022-11-04T00:38:43.977Z,13.36
2022-11-04T00:41:29.963Z,13.60
2022-11-04T00:44:02.412Z,13.48
2022-11-04T00:46:30.622Z,13.60
2022-11-04T00:48:57.718Z,13.26
2022-11-04T00:51:24.587Z,13.34
2022-11-04T00:53:51.825Z,13.55
2022-11-04T00:56:18.117Z,13.22
2022-11-04T00:58:44.500Z,13.44
2022-11-04T01:01:13.008Z,13.62
2022-11-04T01:03:39.633Z,13.51
2022-11-04T01:06:06.841Z,13.28
2022-11-04T01:08:33.350Z,13.37
2022-11-04T01:11:03.972Z,13.39
2022-11-04T01:13:30.941Z,13.18
2022-11-04T01:16:01.581Z,13.23
2022-11-04T01:18:27.951Z,13.26
2022-11-04T01:20:54.379Z,13.33
2022-11-04T01:23:21.056Z,13.07
2022-11-04T01:25:47.381Z,13.27
2022-11-04T01:28:13.704Z,13.30
2022-11-04T01:30:40.097Z,13.40
2022-11-04T01:33:06.466Z,13.44
2022-11-04T01:35:32.819Z,13.23
2022-11-04T01:37:59.284Z,13.52
2022-11-04T01:40:25.748Z,13.29
2022-11-04T01:42:52.367Z,13.46
2022-11-04T01:45:21.235Z,13.67
2022-11-04T01:48:00.951Z,13.54
2022-11-04T01:50:30.829Z,13.64
2022-11-04T01:53:07.319Z,13.68
2022-11-04T01:55:37.441Z,13.34
2022-11-04T01:58:11.066Z,13.50
2022-11-04T02:00:42.052Z,13.37
2022-11-04T02:03:38.221Z,13.57
2022-11-04T02:06:05.892Z,13.45
2022-11-04T02:08:32.520Z,13.49
2022-11-04T02:11:01.152Z,13.75
2022-11-04T02:13:30.222Z,13.57
2022-11-04T02:16:15.371Z,13.57
2022-11-04T02:18:58.789Z,13.63
2022-11-04T02:21:53.479Z,13.64
2022-11-04T02:24:38.237Z,13.61
2022-11-04T02:27:10.596Z,13.68
2022-11-04T02:30:13.602Z,13.53
2022-11-04T02:33:11.679Z,12.95
2022-11-04T02:35:38.139Z,13.18
2022-11-04T02:38:24.719Z,13.22
2022-11-04T02:41:14.340Z,13.34
2022-11-04T02:44:12.335Z,13.30
2022-11-04T02:46:41.792Z,13.28
2022-11-04T02:49:15.605Z,13.04
2022-11-04T02:52:01.107Z,13.17
2022-11-04T02:54:34.513Z,13.07
2022-11-04T02:57:03.567Z,13.09
2022-11-04T02:59:36.315Z,13.06
2022-11-04T03:02:07.976Z,12.98
2022-11-04T03:04:39.294Z,12.77
2022-11-04T03:09:46.162Z,12.58
2022-11-04T03:12:16.867Z,13.09
2022-11-04T03:14:49.908Z,12.95
2022-11-04T03:17:26.683Z,12.96
2022-11-04T03:19:57.310Z,13.07
2022-11-04T03:22:28.203Z,13.36
2022-11-04T03:24:55.109Z,13.23
2022-11-04T03:27:27.519Z,13.35
2022-11-04T03:30:06.452Z,13.38
2022-11-04T03:32:32.781Z,13.46
2022-11-04T03:34:59.433Z,13.38
2022-11-04T03:37:25.874Z,13.26
2022-11-04T03:39:52.293Z,13.30
2022-11-04T03:42:20.543Z,13.27
2022-11-04T03:44:53.128Z,13.23
2022-11-04T03:47:23.046Z,13.26
2022-11-04T03:49:51.118Z,13.42
2022-11-04T03:52:19.003Z,13.11
2022-11-04T03:54:46.564Z,13.12
2022-11-04T03:57:29.629Z,13.16
2022-11-04T04:00:02.981Z,13.14
2022-11-04T04:02:59.880Z,12.73
2022-11-04T04:05:31.964Z,13.05
2022-11-04T04:08:26.723Z,13.11
2022-11-04T04:11:05.736Z,12.91
2022-11-04T04:13:55.630Z,12.82
2022-11-04T04:16:34.422Z,12.55
2022-11-04T04:19:21.170Z,12.63
2022-11-04T04:21:53.653Z,12.41
2022-11-04T04:24:42.045Z,12.39
2022-11-04T04:27:27.824Z,12.46
2022-11-04T04:29:54.601Z,12.54
2022-11-04T04:32:24.615Z,12.43
2022-11-04T04:34:50.968Z,12.38
2022-11-04T04:37:23.817Z,12.23
2022-11-04T04:40:12.863Z,12.35
2022-11-04T04:42:58.066Z,12.17
2022-11-04T04:45:32.845Z,12.32
2022-11-04T04:47:59.585Z,11.88
2022-11-04T04:50:31.277Z,12.08
2022-11-04T04:53:00.043Z,12.14
2022-11-04T04:55:26.730Z,12.29
2022-11-04T04:57:53.063Z,12.10
2022-11-04T05:00:21.095Z,12.13
2022-11-04T05:02:48.898Z,11.96
2022-11-04T05:07:47.970Z,11.87
2022-11-04T05:10:16.008Z,11.58
2022-11-04T05:13:14.935Z,12.00
2022-11-04T05:15:41.242Z,11.75
2022-11-04T05:18:08.049Z,11.81
2022-11-04T05:20:38.176Z,11.95
2022-11-04T05:23:04.539Z,11.83
2022-11-04T05:25:30.873Z,11.70
2022-11-04T05:28:01.833Z,11.53
2022-11-04T05:30:28.909Z,11.42
2022-11-04T05:32:58.533Z,11.39
2022-11-04T05:35:28.056Z,11.08
2022-11-04T05:37:56.355Z,11.65
2022-11-04T05:40:23.702Z,11.42
2022-11-04T05:42:50.050Z,11.40
2022-11-04T05:45:16.642Z,11.57
2022-11-04T05:47:43.092Z,11.54
2022-11-04T05:50:09.644Z,11.59
2022-11-04T05:52:35.994Z,11.37
2022-11-04T05:55:02.310Z,11.55
2022-11-04T05:57:28.679Z,12.16
2022-11-04T05:59:55.120Z,11.59
2022-11-04T06:02:21.552Z,12.12
2022-11-04T06:04:48.169Z,12.21
2022-11-04T06:07:14.689Z,12.16
2022-11-04T06:09:41.336Z,12.01
2022-11-04T06:12:09.701Z,12.21
2022-11-04T06:14:36.150Z,11.86
2022-11-04T06:17:02.691Z,12.11
2022-11-04T06:19:29.108Z,12.04
2022-11-04T06:21:55.557Z,11.76
2022-11-04T06:24:21.889Z,11.98
2022-11-04T06:26:48.240Z,12.11
2022-11-04T06:29:14.527Z,12.00
2022-11-04T06:31:40.888Z,12.12
2022-11-04T06:34:07.247Z,12.06
2022-11-04T06:36:33.563Z,12.00
2022-11-04T06:39:04.415Z,12.02
2022-11-04T06:41:33.603Z,11.86
2022-11-04T06:44:00.178Z,12.06
2022-11-04T06:46:29.180Z,12.19
2022-11-04T06:48:57.000Z,11.99
2022-11-04T06:51:24.341Z,11.87
2022-11-04T06:53:50.872Z,11.88
2022-11-04T06:56:17.517Z,11.89
2022-11-04T06:58:46.906Z,11.80
2022-11-04T07:01:18.583Z,11.67
2022-11-04T07:03:52.826Z,11.77
2022-11-04T07:06:20.324Z,12.09
2022-11-04T07:08:48.047Z,11.96
2022-11-04T07:11:15.301Z,11.90
2022-11-04T07:13:41.747Z,11.95
2022-11-04T07:16:08.928Z,11.85
2022-11-04T07:18:35.767Z,12.12
2022-11-04T07:21:08.625Z,12.14
2022-11-04T07:23:36.218Z,12.20
2022-11-04T07:26:03.757Z,12.29
2022-11-04T07:28:30.216Z,12.27
2022-11-04T07:30:58.396Z,12.32
2022-11-04T07:33:25.983Z,12.52
2022-11-04T07:35:57.055Z,12.57
2022-11-04T07:38:24.669Z,12.51
2022-11-04T07:40:50.959Z,12.25
2022-11-04T07:43:17.351Z,12.49
2022-11-04T07:45:43.907Z,12.61
2022-11-04T07:48:10.865Z,12.58
2022-11-04T07:50:40.647Z,12.67
2022-11-04T07:53:07.892Z,12.73
2022-11-04T07:55:43.047Z,12.95
2022-11-04T07:58:10.017Z,12.40
2022-11-04T08:00:36.363Z,12.81
2022-11-04T08:03:03.055Z,12.91
2022-11-04T08:05:29.497Z,13.07
2022-11-04T08:07:57.569Z,13.00
2022-11-04T08:10:23.930Z,12.84
2022-11-04T08:12:51.681Z,13.16
2022-11-04T08:15:18.427Z,13.13
2022-11-04T08:17:44.962Z,13.24
2022-11-04T08:20:11.935Z,13.39
2022-11-04T08:22:39.015Z,13.18
2022-11-04T08:25:06.100Z,13.25
2022-11-04T08:27:33.772Z,13.50
2022-11-04T08:30:00.098Z,13.54
2022-11-04T08:32:26.473Z,13.58
2022-11-04T08:34:52.784Z,13.52
2022-11-04T08:37:19.107Z,13.47
2022-11-04T08:39:45.405Z,13.40
2022-11-04T08:42:11.718Z,13.30
2022-11-04T08:44:39.633Z,13.68
2022-11-04T08:47:06.270Z,13.76
2022-11-04T08:49:36.936Z,13.61
2022-11-04T08:52:03.857Z,13.79
2022-11-04T08:54:30.390Z,13.56
2022-11-04T08:56:56.730Z,13.95
2022-11-04T08:59:24.872Z,14.29
2022-11-04T09:01:51.324Z,14.47
2022-11-04T09:04:19.493Z,14.31
2022-11-04T09:06:46.607Z,14.50
2022-11-04T09:09:15.372Z,14.49
2022-11-04T09:11:43.537Z,14.29
2022-11-04T09:14:10.847Z,14.31
2022-11-04T09:16:39.966Z,14.24
2022-11-04T09:19:07.123Z,14.01
2022-11-04T09:21:33.665Z,13.99
2022-11-04T09:23:59.972Z,14.06
2022-11-04T09:26:26.790Z,14.13
2022-11-04T09:28:54.903Z,14.34
2022-11-04T09:31:21.639Z,14.36
2022-11-04T09:33:48.037Z,14.12
2022-11-04T09:36:14.465Z,14.22
2022-11-04T09:38:42.583Z,14.19
2022-11-04T09:41:46.349Z,14.39
2022-11-04T09:44:23.620Z,14.46
2022-11-04T09:46:52.016Z,14.45
2022-11-04T09:49:18.619Z,14.23
2022-11-04T09:51:55.923Z,14.29
2022-11-04T09:54:47.482Z,14.76
2022-11-04T09:57:17.998Z,14.86
2022-11-04T09:59:45.656Z,14.97
2022-11-04T10:02:33.894Z,15.22
2022-11-04T10:05:15.290Z,15.24
2022-11-04T10:08:11.913Z,15.65
2022-11-04T10:11:16.016Z,16.75
2022-11-04T10:13:58.936Z,16.94
2022-11-04T10:16:45.039Z,17.63
2022-11-04T10:19:40.915Z,17.85
2022-11-04T10:22:31.107Z,17.43
2022-11-04T10:25:14.159Z,17.30
2022-11-04T10:27:44.819Z,16.78
2022-11-04T10:30:17.249Z,16.64
2022-11-04T10:33:11.570Z,16.91
2022-11-04T10:35:42.519Z,16.96
2022-11-04T10:38:17.547Z,16.60
2022-11-04T10:40:48.602Z,16.89
2022-11-04T10:43:21.077Z,17.47
2022-11-04T10:46:20.318Z,17.50
2022-11-04T10:49:02.865Z,17.27
2022-11-04T10:51:29.206Z,17.11
2022-11-04T10:53:58.579Z,16.91
2022-11-04T10:56:39.519Z,16.69
2022-11-04T10:59:23.266Z,16.80
2022-11-04T11:01:52.951Z,16.76
2022-11-04T11:04:31.345Z,16.76
2022-11-04T11:06:59.272Z,17.05
2022-11-04T11:09:53.389Z,16.84
2022-11-04T11:12:49.985Z,17.04
2022-11-04T11:15:35.559Z,17.20
2022-11-04T11:18:08.070Z,17.17
2022-11-04T11:20:37.819Z,16.91
2022-11-04T11:23:09.726Z,16.86
2022-11-04T11:25:49.910Z,16.85
2022-11-04T11:28:25.009Z,16.87
2022-11-04T11:30:52.231Z,16.73
2022-11-04T11:33:28.300Z,16.82
2022-11-04T11:36:06.804Z,16.51
2022-11-04T11:38:34.675Z,16.04
2022-11-04T11:41:25.224Z,15.85
2022-11-04T11:43:53.754Z,15.81
2022-11-04T11:46:25.570Z,15.71
2022-11-04T11:48:55.343Z,15.44
2022-11-04T11:51:34.978Z,15.61
2022-11-04T11:54:49.236Z,15.61
2022-11-04T12:00:49.234Z,15.62
2022-11-04T12:03:31.108Z,15.52
2022-11-04T12:09:34.663Z,15.83
2022-11-04T12:12:13.622Z,15.85
2022-11-04T12:15:09.670Z,15.93
2022-11-04T12:18:08.250Z,15.88
2022-11-04T12:21:06.941Z,15.93
2022-11-04T12:23:42.259Z,16.03
2022-11-04T12:26:20.651Z,16.13
2022-11-04T12:29:11.789Z,16.10
2022-11-04T12:32:17.026Z,16.33
2022-11-04T12:34:45.339Z,16.37
2022-11-04T12:37:38.232Z,16.41
2022-11-04T12:40:41.480Z,16.65
2022-11-04T12:43:16.644Z,16.85
2022-11-04T12:45:57.696Z,16.50
2022-11-04T12:48:30.843Z,16.10
2022-11-04T12:51:13.480Z,16.28
2022-11-04T12:54:24.503Z,16.11
2022-11-04T12:57:08.212Z,15.90
2022-11-04T12:59:43.155Z,16.10
2022-11-04T13:02:21.479Z,16.04
2022-11-04T13:05:26.505Z,16.01
2022-11-04T13:08:14.602Z,16.14
2022-11-04T13:11:02.294Z,16.02
2022-11-04T13:13:39.473Z,16.05
2022-11-04T13:16:11.979Z,16.16
2022-11-04T13:18:40.337Z,16.21
2022-11-04T13:21:18.607Z,16.32
2022-11-04T13:23:51.511Z,16.30
2022-11-04T13:26:18.614Z,16.01
2022-11-04T13:28:56.166Z,15.96
2022-11-04T13:31:43.771Z,16.21
2022-11-04T13:34:13.520Z,16.14
2022-11-04T13:36:58.280Z,16.24
2022-11-04T13:39:29.368Z,16.23
2022-11-04T13:42:08.132Z,16.05
2022-11-04T13:44:39.911Z,16.02
2022-11-04T13:47:24.821Z,16.21
2022-11-04T13:49:55.333Z,16.06
2022-11-04T13:52:33.316Z,16.05
2022-11-04T13:55:07.033Z,16.29
2022-11-04T13:57:50.727Z,16.30
2022-11-04T14:00:16.970Z,16.53
2022-11-04T14:02:52.154Z,16.60
2022-11-04T14:05:27.385Z,16.61
2022-11-04T14:08:02.806Z,16.70
2022-11-04T14:10:50.819Z,16.70
2022-11-04T14:13:26.389Z,16.81
2022-11-04T14:16:00.591Z,16.81
2022-11-04T14:18:30.922Z,16.88
2022-11-04T14:21:09.363Z,16.84
2022-11-04T14:23:37.681Z,16.75
2022-11-04T14:26:10.450Z,16.43
2022-11-04T14:28:38.461Z,16.67
2022-11-04T14:31:12.546Z,16.55
2022-11-04T14:33:57.036Z,16.20
2022-11-04T14:36:23.347Z,16.36
2022-11-04T14:39:00.728Z,16.13
2022-11-04T14:41:30.032Z,16.14
2022-11-04T14:43:59.779Z,15.91
2022-11-04T14:46:30.919Z,15.89
2022-11-04T14:49:01.175Z,15.80
2022-11-04T14:51:33.369Z,15.74
2022-11-04T14:54:25.465Z,15.67
2022-11-04T14:57:07.671Z,15.32
2022-11-04T14:59:33.976Z,15.41
2022-11-04T15:02:00.704Z,15.35
2022-11-04T15:04:29.548Z,15.51
2022-11-04T15:06:58.707Z,15.48
2022-11-04T15:09:28.769Z,15.28
2022-11-04T15:12:25.473Z,15.42
2022-11-04T15:14:52.333Z,15.30
2022-11-04T15:17:21.733Z,15.19
2022-11-04T15:19:51.900Z,15.09
2022-11-04T15:22:19.231Z,15.31
2022-11-04T15:24:46.328Z,15.25
2022-11-04T15:27:17.229Z,15.33
2022-11-04T15:30:01.158Z,15.32
2022-11-04T15:32:28.368Z,15.31
2022-11-04T15:34:56.533Z,15.33
2022-11-04T15:37:25.413Z,15.29
2022-11-04T15:39:55.174Z,15.12
2022-11-04T15:42:37.283Z,15.39
2022-11-04T15:45:49.958Z,15.23
2022-11-04T15:48:31.089Z,15.25
2022-11-04T15:51:19.278Z,15.32
2022-11-04T15:53:55.427Z,15.27
2022-11-04T15:56:27.433Z,15.10
2022-11-04T15:58:55.645Z,15.24
2022-11-04T16:01:23.043Z,15.14
2022-11-04T16:03:57.942Z,15.18
2022-11-04T16:07:02.671Z,15.28
2022-11-04T16:09:29.071Z,14.98
2022-11-04T16:12:08.797Z,15.10
2022-11-04T16:14:35.602Z,14.95
2022-11-04T16:17:02.034Z,14.83
2022-11-04T16:19:30.177Z,14.76
2022-11-04T16:22:09.520Z,14.77
2022-11-04T16:24:39.159Z,15.00
2022-11-04T16:27:10.837Z,14.97
2022-11-04T16:29:39.831Z,14.79
2022-11-04T16:32:30.021Z,14.72
2022-11-04T16:35:00.863Z,14.84
2022-11-04T16:37:28.238Z,15.00
2022-11-04T16:39:54.758Z,14.85
2022-11-04T16:42:22.069Z,14.98
2022-11-04T16:44:51.276Z,14.96
2022-11-04T16:47:18.877Z,14.76
2022-11-04T16:49:45.959Z,14.98
2022-11-04T16:52:22.973Z,15.10
2022-11-04T16:54:49.601Z,14.43
2022-11-04T16:57:16.541Z,15.09
2022-11-04T16:59:43.313Z,14.93
2022-11-04T17:02:25.393Z,14.89
2022-11-04T17:04:52.027Z,14.93
2022-11-04T17:07:18.365Z,14.82
2022-11-04T17:09:44.712Z,14.71
2022-11-04T17:12:11.199Z,14.71
2022-11-04T17:14:37.609Z,14.26
2022-11-04T17:17:04.832Z,14.37
2022-11-04T17:19:34.795Z,14.80
2022-11-04T17:22:04.154Z,14.57
2022-11-04T17:24:30.939Z,14.58
2022-11-04T17:26:57.387Z,14.83
2022-11-04T17:29:23.808Z,14.70
2022-11-04T17:31:50.367Z,14.59
2022-11-04T17:34:16.828Z,14.61
2022-11-04T17:36:43.161Z,14.56
2022-11-04T17:39:09.576Z,14.58
2022-11-04T17:41:54.489Z,14.63
2022-11-04T17:44:20.788Z,14.59
2022-11-04T17:46:48.703Z,14.48
2022-11-04T17:49:17.546Z,14.62
2022-11-04T17:51:46.987Z,14.45
2022-11-04T17:54:13.774Z,14.29
2022-11-04T17:56:40.852Z,14.60
2022-11-04T17:59:08.371Z,14.44
2022-11-04T18:01:36.588Z,14.44
2022-11-04T18:04:03.247Z,14.41
2022-11-04T18:06:31.960Z,14.61
2022-11-04T18:08:59.665Z,14.28
2022-11-04T18:11:46.558Z,14.34
2022-11-04T18:14:16.870Z,14.51
2022-11-04T18:16:46.041Z,14.46
2022-11-04T18:19:13.423Z,14.45
2022-11-04T18:21:40.372Z,14.46
2022-11-04T18:24:07.224Z,14.26
2022-11-04T18:26:33.636Z,14.32
2022-11-04T18:29:01.063Z,14.32
2022-11-04T18:31:30.666Z,14.30
2022-11-04T18:34:02.276Z,14.50
2022-11-04T18:36:29.800Z,14.35
2022-11-04T18:38:56.694Z,14.36
2022-11-04T18:41:23.040Z,14.31
2022-11-04T18:43:49.387Z,14.24
2022-11-04T18:46:16.787Z,14.17
2022-11-04T18:48:48.039Z,14.29
2022-11-04T18:51:14.500Z,14.09
2022-11-04T18:53:40.932Z,14.01
2022-11-04T18:56:30.782Z,13.67
2022-11-04T18:58:57.159Z,13.97
2022-11-04T19:01:26.445Z,14.12
2022-11-04T19:03:53.213Z,13.81
2022-11-04T19:06:25.833Z,13.93
2022-11-04T19:08:55.909Z,14.03
2022-11-04T19:11:25.685Z,14.12
2022-11-04T19:13:54.857Z,13.94
2022-11-04T19:16:21.811Z,14.19
2022-11-04T19:18:49.391Z,14.05
2022-11-04T19:21:18.821Z,14.05
2022-11-04T19:23:45.809Z,14.01
2022-11-04T19:26:15.084Z,13.87
2022-11-04T19:28:48.185Z,14.08
2022-11-04T19:31:19.287Z,14.02
2022-11-04T19:33:47.205Z,13.81
2022-11-04T19:36:16.188Z,13.94
2022-11-04T19:38:43.696Z,13.74
2022-11-04T19:41:34.569Z,13.36
2022-11-04T19:44:02.801Z,13.65
2022-11-04T19:46:29.433Z,13.82
2022-11-04T19:48:56.491Z,13.78
2022-11-04T19:51:26.620Z,13.74
2022-11-04T19:53:57.249Z,14.02
2022-11-04T19:56:24.291Z,13.94
2022-11-04T19:58:50.728Z,13.93
2022-11-04T20:01:18.488Z,13.95
2022-11-04T20:03:45.013Z,13.85
2022-11-04T20:06:18.687Z,13.82
2022-11-04T20:08:54.435Z,13.91
2022-11-04T20:11:21.068Z,13.95
2022-11-04T20:13:48.413Z,13.99
2022-11-04T20:16:18.341Z,14.10
2022-11-04T20:18:47.088Z,13.98
2022-11-04T20:21:14.611Z,14.07
2022-11-04T20:23:41.872Z,13.97
2022-11-04T20:26:20.398Z,14.09
2022-11-04T20:28:47.655Z,13.93
2022-11-04T20:31:19.354Z,14.00
2022-11-04T20:33:48.119Z,14.01
2022-11-04T20:36:17.178Z,14.04
2022-11-04T20:38:43.616Z,13.75
2022-11-04T20:41:15.343Z,13.95
2022-11-04T20:43:41.671Z,13.69
2022-11-04T20:46:14.520Z,13.82
2022-11-04T20:48:40.905Z,13.70
2022-11-04T20:51:09.744Z,13.94
2022-11-04T20:53:36.360Z,13.94
2022-11-04T20:56:07.541Z,13.87
2022-11-04T20:58:35.500Z,13.76
2022-11-04T21:01:03.677Z,13.76
2022-11-04T21:03:30.206Z,13.89
2022-11-04T21:05:57.176Z,13.84
2022-11-04T21:08:24.212Z,13.80
2022-11-04T21:10:52.188Z,13.55
2022-11-04T21:13:18.509Z,13.39
2022-11-04T21:15:44.842Z,13.47
2022-11-04T21:18:12.975Z,13.55
2022-11-04T21:20:41.778Z,13.61
2022-11-04T21:23:12.823Z,13.43
2022-11-04T21:25:45.512Z,13.26
2022-11-04T21:28:13.111Z,13.23
2022-11-04T21:30:42.877Z,13.27
2022-11-04T21:33:09.343Z,12.98
2022-11-04T21:35:37.307Z,13.27
2022-11-04T21:38:05.139Z,13.16
2022-11-04T21:40:31.733Z,13.08
2022-11-04T21:42:58.410Z,13.10
2022-11-04T21:45:25.128Z,12.88
2022-11-04T21:47:51.653Z,12.67
2022-11-04T21:50:18.511Z,12.96
2022-11-04T21:52:45.373Z,13.03
2022-11-04T21:55:12.190Z,13.04
2022-11-04T21:57:38.905Z,12.83
2022-11-04T22:00:06.916Z,12.90
2022-11-04T22:02:42.623Z,12.50
2022-11-04T22:05:13.978Z,12.88
2022-11-04T22:08:01.186Z,12.62
2022-11-04T22:10:28.785Z,12.81
2022-11-04T22:12:55.860Z,12.78
2022-11-04T22:15:48.465Z,12.53
2022-11-04T22:18:15.318Z,12.57
2022-11-04T22:20:41.627Z,12.52
2022-11-04T22:23:08.282Z,12.54
2022-11-04T22:25:34.848Z,12.42
2022-11-04T22:28:01.206Z,12.43
2022-11-04T22:30:28.021Z,12.29
2022-11-04T22:32:54.334Z,12.49
2022-11-04T22:35:20.849Z,12.38
2022-11-04T22:37:47.140Z,12.33
2022-11-04T22:40:13.469Z,12.51
2022-11-04T22:42:39.989Z,12.52
2022-11-04T22:45:06.589Z,12.20
2022-11-04T22:47:32.962Z,12.07
2022-11-04T22:49:59.324Z,12.29
2022-11-04T22:52:25.653Z,12.33
2022-11-04T22:54:51.969Z,11.72
2022-11-04T22:57:18.266Z,12.17
2022-11-04T22:59:44.636Z,12.06
2022-11-04T23:02:11.117Z,11.84
2022-11-04T23:04:37.775Z,11.99
2022-11-04T23:07:04.633Z,11.84
2022-11-04T23:09:31.827Z,12.03
2022-11-04T23:12:16.893Z,11.40
2022-11-04T23:14:43.255Z,11.56
2022-11-04T23:17:39.197Z,11.93
2022-11-04T23:20:13.049Z,11.67
2022-11-04T23:22:57.955Z,11.94
2022-11-04T23:25:25.154Z,11.93
2022-11-04T23:28:12.091Z,11.61
2022-11-04T23:30:44.956Z,11.90
2022-11-04T23:33:14.561Z,11.90
2022-11-04T23:36:02.896Z,11.85
2022-11-04T23:38:29.921Z,11.85
2022-11-04T23:41:25.953Z,11.69
2022-11-04T23:43:52.338Z,11.25
2022-11-04T23:46:42.704Z,11.05
2022-11-04T23:49:31.297Z,11.31
2022-11-04T23:52:15.980Z,11.21
2022-11-04T23:55:01.158Z,11.47
2022-11-04T23:57:45.982Z,11.16
